Time;durP1;ratioP1;P1;durP2;ratioP2;P2;SDS_P1;SDS_P2;PMS_P1;PMS_P2;Temp;Humidity;BMP_temperature;BMP_pressure;BME280_temperature;BME280_humidity;BME280_pressure;Samples;Min_cycle;Max_cycle;Signal;HPM_P1;HPM_P2
2022/08/28 00:01:11;;;;;;;8.27;1.70;;;20.20;99.90;;;;;;6215105;23;20377;-86
2022/08/28 00:03:36;;;;;;;6.13;1.57;;;20.10;99.90;;;;;;6214147;23;20182;-86
2022/08/28 00:06:02;;;;;;;5.63;2.00;;;20.10;99.90;;;;;;6213615;23;20413;-87
2022/08/28 00:08:29;;;;;;;4.53;1.77;;;20.10;99.90;;;;;;6214907;23;20206;-86
2022/08/28 00:10:55;;;;;;;3.10;1.77;;;20.10;99.90;;;;;;6213902;23;20512;-86
2022/08/28 00:13:24;;;;;;;4.00;1.33;;;20.00;99.90;;;;;;6214470;23;20941;-86
2022/08/28 00:15:54;;;;;;;3.23;1.70;;;20.00;99.90;;;;;;6214695;23;20386;-87
2022/08/28 00:18:20;;;;;;;10.57;1.80;;;20.00;99.90;;;;;;6213977;23;20378;-86
2022/08/28 00:20:47;;;;;;;7.00;2.00;;;19.90;99.90;;;;;;6189959;23;20391;-86
2022/08/28 00:23:13;;;;;;;5.20;2.03;;;19.90;99.90;;;;;;6216844;23;20398;-86
2022/08/28 00:25:38;;;;;;;5.57;2.30;;;19.90;99.90;;;;;;6214858;23;20415;-86
2022/08/28 00:28:07;;;;;;;9.00;1.90;;;19.90;99.90;;;;;;6221857;23;20373;-86
2022/08/28 00:30:39;;;;;;;5.73;1.93;;;19.80;99.90;;;;;;6218458;23;20188;-86
2022/08/28 00:33:13;;;;;;;14.77;2.50;;;19.80;99.90;;;;;;6214766;23;20809;-86
2022/08/28 00:35:40;;;;;;;6.13;2.57;;;19.80;99.90;;;;;;6213784;23;21006;-87
2022/08/28 00:38:11;;;;;;;7.10;1.97;;;19.70;99.90;;;;;;6214093;23;20386;-87
2022/08/28 00:40:38;;;;;;;7.93;1.90;;;19.70;99.90;;;;;;6214388;23;20418;-86
2022/08/28 00:43:06;;;;;;;6.17;2.20;;;19.70;99.90;;;;;;6216026;23;20492;-86
2022/08/28 00:45:33;;;;;;;6.00;1.90;;;19.70;99.90;;;;;;6215773;23;20839;-87
2022/08/28 00:47:59;;;;;;;4.80;1.93;;;19.60;99.90;;;;;;6213245;23;20389;-86
2022/08/28 00:52:04;;;;;;;7.33;2.83;;;19.60;99.90;;;;;;6215543;23;20750;-86
2022/08/28 00:53:19;;;;;;;7.97;2.73;;;19.60;99.90;;;;;;6216163;23;20812;-88
2022/08/28 00:55:45;;;;;;;6.47;2.40;;;19.60;99.90;;;;;;6214818;23;20377;-86
2022/08/28 00:58:12;;;;;;;6.00;2.20;;;19.60;99.90;;;;;;6213246;23;20393;-86
2022/08/28 01:00:39;;;;;;;8.43;2.47;;;19.60;99.90;;;;;;6213565;23;20402;-86
2022/08/28 01:03:06;;;;;;;8.50;2.63;;;19.60;99.90;;;;;;6212867;23;20497;-86
2022/08/28 01:05:34;;;;;;;8.60;2.20;;;19.50;99.90;;;;;;6213920;23;20397;-86
2022/08/28 01:08:02;;;;;;;6.40;2.50;;;19.50;99.90;;;;;;6213607;23;20385;-86
2022/08/28 01:10:31;;;;;;;5.13;2.20;;;19.50;99.90;;;;;;6214231;23;20431;-86
2022/08/28 01:12:59;;;;;;;7.00;3.70;;;19.50;99.90;;;;;;6214282;23;20381;-86
2022/08/28 01:15:31;;;;;;;7.00;3.40;;;19.50;99.90;;;;;;6213640;23;20394;-86
2022/08/28 01:18:00;;;;;;;10.03;2.80;;;19.50;99.90;;;;;;6187894;23;20943;-86
2022/08/28 01:20:30;;;;;;;11.90;3.50;;;19.50;99.90;;;;;;6214843;23;20481;-86
2022/08/28 01:23:12;;;;;;;7.83;2.67;;;19.50;99.90;;;;;;6213230;23;20478;-86
2022/08/28 01:25:41;;;;;;;7.23;2.40;;;19.50;99.90;;;;;;6213438;23;20412;-87
2022/08/28 01:28:11;;;;;;;7.23;2.20;;;19.50;99.90;;;;;;6212679;23;20395;-86
2022/08/28 01:30:38;;;;;;;6.63;2.40;;;19.50;99.90;;;;;;6213785;23;20436;-86
2022/08/28 01:33:04;;;;;;;9.73;3.27;;;19.50;99.90;;;;;;6213093;23;20395;-86
2022/08/28 01:35:33;;;;;;;4.37;2.70;;;19.50;99.90;;;;;;6213080;23;20386;-88
2022/08/28 01:38:01;;;;;;;5.43;2.60;;;19.50;99.90;;;;;;6187407;23;20160;-86
2022/08/28 01:40:30;;;;;;;13.60;3.07;;;19.50;99.90;;;;;;6214700;23;20434;-86
2022/08/28 01:43:16;;;;;;;8.17;2.53;;;19.50;99.90;;;;;;6213298;23;20876;-86
2022/08/28 01:45:44;;;;;;;9.83;2.30;;;19.50;99.90;;;;;;6213314;23;20396;-86
2022/08/28 01:48:11;;;;;;;6.53;2.70;;;19.50;99.90;;;;;;6212966;23;20394;-86
2022/08/28 01:50:37;;;;;;;7.77;3.17;;;19.50;99.90;;;;;;6212193;23;20426;-86
2022/08/28 01:53:05;;;;;;;5.03;2.60;;;19.40;99.90;;;;;;6213093;23;20703;-89
2022/08/28 01:55:32;;;;;;;13.43;3.97;;;19.40;99.90;;;;;;6213202;23;20386;-89
2022/08/28 01:57:58;;;;;;;5.23;3.10;;;19.40;99.90;;;;;;6187702;23;20387;-86
2022/08/28 02:00:27;;;;;;;13.93;3.80;;;19.30;99.90;;;;;;6214706;23;20437;-88
2022/08/28 02:02:55;;;;;;;8.07;3.90;;;19.30;99.90;;;;;;6213213;23;20197;-87
2022/08/28 02:05:23;;;;;;;8.97;3.97;;;19.20;99.90;;;;;;6214496;23;20408;-87
2022/08/28 02:07:49;;;;;;;9.07;3.90;;;19.20;99.90;;;;;;6212968;23;20461;-87
2022/08/28 02:10:15;;;;;;;9.93;3.20;;;19.20;99.90;;;;;;6213123;23;20429;-87
2022/08/28 02:12:42;;;;;;;12.00;4.37;;;19.10;99.90;;;;;;6212817;23;20414;-87
2022/08/28 02:15:09;;;;;;;11.70;4.37;;;19.10;99.90;;;;;;6213132;23;20412;-87
2022/08/28 02:17:34;;;;;;;10.00;3.77;;;19.00;99.90;;;;;;6213796;23;20375;-87
2022/08/28 02:20:00;;;;;;;5.10;3.40;;;19.00;99.90;;;;;;6187999;23;20481;-87
2022/08/28 02:22:26;;;;;;;9.67;3.40;;;18.90;99.90;;;;;;6211628;23;20307;-87
2022/08/28 02:24:51;;;;;;;10.00;3.43;;;18.90;99.90;;;;;;6214394;23;20178;-87
2022/08/28 02:27:17;;;;;;;8.30;3.27;;;18.80;99.90;;;;;;6214387;23;20222;-87
2022/08/28 02:29:43;;;;;;;7.67;3.47;;;18.80;99.90;;;;;;6214703;23;20186;-87
2022/08/28 02:32:09;;;;;;;8.60;3.57;;;18.80;99.90;;;;;;6188452;23;20227;-86
2022/08/28 02:34:36;;;;;;;5.00;3.20;;;18.70;99.90;;;;;;6213628;23;20179;-86
2022/08/28 02:37:02;;;;;;;8.87;3.87;;;18.60;99.90;;;;;;6211753;23;20726;-87
2022/08/28 02:39:28;;;;;;;8.67;3.30;;;18.60;99.90;;;;;;6212520;23;20523;-87
2022/08/28 02:41:54;;;;;;;9.63;3.97;;;18.50;99.90;;;;;;6215200;23;20426;-86
2022/08/28 02:44:20;;;;;;;8.83;4.10;;;18.50;99.90;;;;;;6213597;23;20523;-87
2022/08/28 02:46:45;;;;;;;7.93;3.70;;;18.40;99.90;;;;;;6213857;23;20380;-87
2022/08/28 02:49:11;;;;;;;12.93;4.10;;;18.40;99.90;;;;;;6215143;23;20216;-87
2022/08/28 02:51:36;;;;;;;11.90;4.07;;;18.30;99.90;;;;;;6212348;23;20217;-87
2022/08/28 02:54:02;;;;;;;15.23;4.23;;;18.30;99.90;;;;;;6213758;23;20186;-87
2022/08/28 02:56:28;;;;;;;12.67;4.27;;;18.20;99.90;;;;;;6212165;23;20155;-86
2022/08/28 02:58:54;;;;;;;6.57;3.77;;;18.20;99.90;;;;;;6214892;23;20151;-86
2022/08/28 03:01:20;;;;;;;9.47;3.83;;;18.10;99.90;;;;;;6188156;23;20157;-87
2022/08/28 03:03:45;;;;;;;12.00;4.63;;;18.20;99.90;;;;;;6212881;23;20413;-87
2022/08/28 03:06:12;;;;;;;11.53;5.00;;;18.10;99.90;;;;;;6187044;23;20171;-87
2022/08/28 03:08:39;;;;;;;11.80;5.13;;;18.00;99.90;;;;;;6213028;23;20184;-87
2022/08/28 03:11:04;;;;;;;9.10;4.57;;;18.00;99.90;;;;;;6187809;23;20431;-87
2022/08/28 03:13:30;;;;;;;12.57;4.47;;;18.00;99.90;;;;;;6213028;23;20400;-87
2022/08/28 03:15:56;;;;;;;12.13;4.43;;;17.90;99.90;;;;;;6213393;23;20287;-86
2022/08/28 03:18:24;;;;;;;15.30;5.23;;;17.90;99.90;;;;;;6212211;23;20161;-86
2022/08/28 03:20:49;;;;;;;11.57;4.30;;;17.80;99.90;;;;;;6213029;23;20395;-87
2022/08/28 03:23:27;;;;;;;7.87;4.33;;;17.80;99.90;;;;;;6212934;23;20414;-86
2022/08/28 03:25:54;;;;;;;11.70;4.30;;;17.80;99.90;;;;;;6213733;23;20170;-87
2022/08/28 03:28:19;;;;;;;9.17;3.80;;;17.70;99.90;;;;;;6212096;23;20385;-86
2022/08/28 03:30:45;;;;;;;7.80;4.03;;;17.70;1.00;;;;;;6211790;23;21078;-86
2022/08/28 03:33:10;;;;;;;11.83;4.20;;;17.60;1.00;;;;;;6187161;23;20180;-86
2022/08/28 03:35:36;;;;;;;16.00;4.40;;;17.60;1.00;;;;;;6213877;23;20702;-87
2022/08/28 03:38:03;;;;;;;11.53;5.27;;;17.50;1.00;;;;;;6212755;23;20153;-87
2022/08/28 03:40:29;;;;;;;11.00;5.47;;;17.50;1.00;;;;;;6213332;23;20484;-87
2022/08/28 03:42:55;;;;;;;10.60;4.80;;;17.40;1.00;;;;;;6213965;23;20385;-87
2022/08/28 03:45:21;;;;;;;14.30;5.27;;;17.40;1.00;;;;;;6211988;23;20420;-88
2022/08/28 03:47:46;;;;;;;11.10;4.70;;;17.30;1.00;;;;;;6211224;23;20277;-87
2022/08/28 03:50:12;;;;;;;10.80;4.40;;;17.30;1.00;;;;;;6213044;23;20463;-87
2022/08/28 03:52:39;;;;;;;14.20;5.00;;;17.20;1.00;;;;;;6213956;23;20277;-87
2022/08/28 03:55:07;;;;;;;10.83;5.10;;;17.20;1.00;;;;;;6213917;23;20414;-87
2022/08/28 03:57:34;;;;;;;8.30;4.47;;;17.10;1.00;;;;;;6212656;23;20376;-87
2022/08/28 04:00:00;;;;;;;11.43;5.70;;;17.10;1.00;;;;;;6211683;23;20937;-87
2022/08/28 04:02:25;;;;;;;10.30;5.57;;;17.00;1.00;;;;;;6213802;23;20381;-87
2022/08/28 04:04:51;;;;;;;10.77;5.13;;;17.00;1.00;;;;;;6187481;23;20405;-86
2022/08/28 04:07:18;;;;;;;10.93;5.70;;;17.00;1.00;;;;;;6211473;23;20161;-86
2022/08/28 04:09:44;;;;;;;9.83;4.43;;;16.90;1.00;;;;;;6214028;23;20150;-87
2022/08/28 04:12:10;;;;;;;10.13;4.93;;;16.90;1.00;;;;;;6212742;23;20392;-87
2022/08/28 04:14:36;;;;;;;15.80;4.70;;;16.90;1.00;;;;;;6211941;23;20902;-86
2022/08/28 04:17:02;;;;;;;13.03;4.63;;;16.90;1.00;;;;;;6210389;23;20383;-87
2022/08/28 04:19:28;;;;;;;8.70;4.97;;;16.90;1.00;;;;;;6212879;23;20475;-88
2022/08/28 04:21:54;;;;;;;17.60;5.50;;;16.90;1.00;;;;;;6212691;23;20396;-87
2022/08/28 04:24:19;;;;;;;10.00;5.40;;;16.90;1.00;;;;;;6187665;23;20418;-87
2022/08/28 04:26:45;;;;;;;7.23;4.47;;;16.90;1.00;;;;;;6211127;23;20187;-87
2022/08/28 04:29:11;;;;;;;10.30;5.27;;;16.90;1.00;;;;;;6214776;23;20146;-86
2022/08/28 04:31:40;;;;;;;9.70;5.17;;;16.80;1.00;;;;;;6212033;23;20638;-87
2022/08/28 04:34:07;;;;;;;7.80;4.17;;;16.80;1.00;;;;;;6212513;23;20401;-87
2022/08/28 04:36:34;;;;;;;11.03;5.30;;;16.80;1.00;;;;;;6213372;23;20388;-87
2022/08/28 04:39:00;;;;;;;18.03;6.00;;;16.80;1.00;;;;;;6214430;23;20373;-87
2022/08/28 04:41:27;;;;;;;10.93;4.10;;;16.70;1.00;;;;;;6187729;23;20432;-87
2022/08/28 04:43:56;;;;;;;9.13;4.30;;;16.80;1.00;;;;;;6212447;23;20412;-86
2022/08/28 04:46:21;;;;;;;11.13;4.70;;;16.80;2.30;;;;;;6214286;23;20714;-87
2022/08/28 04:48:47;;;;;;;7.37;4.30;;;16.70;13.10;;;;;;6216109;23;20387;-86
2022/08/28 04:51:16;;;;;;;14.57;4.60;;;16.80;33.50;;;;;;6214400;23;20227;-87
2022/08/28 04:53:42;;;;;;;14.90;5.10;;;16.80;32.00;;;;;;6214039;23;20178;-87
2022/08/28 04:56:11;;;;;;;12.80;5.50;;;16.80;44.30;;;;;;6213690;23;20392;-86
2022/08/28 04:58:38;;;;;;;13.27;5.67;;;16.80;49.10;;;;;;6214424;23;20488;-87
2022/08/28 05:01:10;;;;;;;12.40;4.97;;;16.80;51.40;;;;;;6215531;23;20384;-87
2022/08/28 05:03:35;;;;;;;9.23;4.40;;;16.90;58.60;;;;;;6214145;23;20408;-86
2022/08/28 05:06:02;;;;;;;13.43;5.60;;;16.90;52.80;;;;;;6214059;23;20870;-86
2022/08/28 05:08:31;;;;;;;12.10;5.30;;;16.90;51.20;;;;;;6215576;23;20165;-87
2022/08/28 05:11:11;;;;;;;14.90;5.73;;;17.00;52.90;;;;;;6219732;23;20455;-87
2022/08/28 05:13:37;;;;;;;11.70;4.83;;;17.10;56.30;;;;;;6219523;23;20401;-86
2022/08/28 05:16:03;;;;;;;13.07;5.43;;;17.20;26.60;;;;;;6219757;23;20385;-88
2022/08/28 05:18:29;;;;;;;11.23;5.20;;;17.30;1.10;;;;;;6219250;23;20723;-87
2022/08/28 05:20:54;;;;;;;19.50;5.60;;;17.50;1.00;;;;;;6218781;23;20389;-88
2022/08/28 05:23:20;;;;;;;11.20;5.10;;;17.60;1.00;;;;;;6218881;23;20232;-87
2022/08/28 05:25:47;;;;;;;7.80;5.57;;;17.70;1.00;;;;;;6219744;23;20643;-87
2022/08/28 05:28:18;;;;;;;10.07;5.27;;;17.80;1.00;;;;;;6218853;23;20160;-89
2022/08/28 05:30:44;;;;;;;11.73;5.00;;;17.80;1.00;;;;;;6218992;23;20554;-87
2022/08/28 05:33:13;;;;;;;11.73;4.60;;;17.90;1.00;;;;;;6219107;23;20761;-87
2022/08/28 05:35:43;;;;;;;12.83;4.87;;;17.90;1.00;;;;;;6215058;23;20159;-90
2022/08/28 05:38:09;;;;;;;17.03;5.10;;;17.90;1.00;;;;;;6213298;23;20379;-89
2022/08/28 05:40:44;;;;;;;9.87;4.67;;;17.90;1.00;;;;;;6213885;23;20416;-89
2022/08/28 05:43:11;;;;;;;13.67;5.67;;;17.90;1.00;;;;;;6213531;23;20716;-89
2022/08/28 05:45:36;;;;;;;7.30;4.13;;;18.00;1.00;;;;;;6213087;23;20420;-89
2022/08/28 05:48:02;;;;;;;13.87;5.33;;;18.10;1.00;;;;;;6212629;23;20390;-92
2022/08/28 05:50:28;;;;;;;12.73;4.97;;;18.10;1.00;;;;;;6219309;23;20187;-87
2022/08/28 05:52:53;;;;;;;15.90;5.33;;;18.10;1.00;;;;;;6219586;23;20874;-87
2022/08/28 05:55:25;;;;;;;10.77;4.70;;;18.20;1.00;;;;;;6219618;23;20151;-87
2022/08/28 05:57:51;;;;;;;10.00;4.60;;;18.20;1.00;;;;;;6218589;23;20155;-87
2022/08/28 06:00:17;;;;;;;8.53;4.93;;;18.30;1.00;;;;;;6219577;23;20440;-87
2022/08/28 06:02:43;;;;;;;16.43;5.50;;;18.40;1.00;;;;;;6218863;23;20199;-88
2022/08/28 06:05:11;;;;;;;11.23;4.50;;;18.50;1.00;;;;;;6195323;23;20186;-87
2022/08/28 06:07:39;;;;;;;12.80;4.60;;;18.50;1.00;;;;;;6219915;23;20442;-88
2022/08/28 06:10:06;;;;;;;13.10;4.77;;;18.60;1.00;;;;;;6221233;23;20436;-89
2022/08/28 06:12:31;;;;;;;8.97;4.27;;;18.70;1.00;;;;;;6222131;23;20385;-87
2022/08/28 06:14:57;;;;;;;9.13;4.20;;;18.80;1.00;;;;;;6220278;23;20480;-87
2022/08/28 06:17:23;;;;;;;11.70;4.00;;;18.90;1.00;;;;;;6220244;23;20155;-88
2022/08/28 06:19:49;;;;;;;10.20;4.57;;;19.00;1.00;;;;;;6220007;23;20429;-88
2022/08/28 06:22:14;;;;;;;12.20;4.97;;;19.10;99.90;;;;;;6221191;23;20161;-89
2022/08/28 06:24:40;;;;;;;8.23;4.90;;;19.10;99.90;;;;;;6220493;23;20179;-87
2022/08/28 06:27:06;;;;;;;10.43;4.77;;;19.10;99.90;;;;;;6219878;23;20169;-87
2022/08/28 06:29:32;;;;;;;12.57;4.07;;;19.10;99.90;;;;;;6220190;23;20167;-87
2022/08/28 06:32:00;;;;;;;10.70;4.50;;;19.20;99.90;;;;;;6219891;23;20607;-87
2022/08/28 06:34:26;;;;;;;10.80;5.00;;;19.30;99.90;;;;;;6220009;23;20749;-88
2022/08/28 06:36:53;;;;;;;13.37;4.30;;;19.40;99.90;;;;;;6219478;23;20390;-87
2022/08/28 06:39:18;;;;;;;12.87;4.00;;;19.60;99.90;;;;;;6220122;23;20390;-87
2022/08/28 06:41:44;;;;;;;10.20;5.07;;;19.70;99.90;;;;;;6220490;23;20400;-87
2022/08/28 06:44:12;;;;;;;7.03;4.03;;;19.90;99.90;;;;;;6219867;23;20556;-88
2022/08/28 06:46:38;;;;;;;14.73;5.10;;;20.10;99.90;;;;;;6221210;23;20587;-88
2022/08/28 06:49:06;;;;;;;13.80;4.07;;;20.20;99.90;;;;;;6221380;23;20398;-88
2022/08/28 06:51:32;;;;;;;11.10;3.87;;;20.40;99.90;;;;;;6220655;23;20427;-87
2022/08/28 06:53:57;;;;;;;9.60;5.10;;;20.70;99.90;;;;;;6220668;23;20402;-88
2022/08/28 06:56:24;;;;;;;13.43;3.93;;;20.90;99.90;;;;;;6219832;23;20154;-87
2022/08/28 06:58:50;;;;;;;11.93;4.57;;;21.20;99.90;;;;;;6218992;23;20185;-87
2022/08/28 07:01:22;;;;;;;8.87;4.13;;;21.50;99.90;;;;;;6218828;23;20485;-88
2022/08/28 07:03:51;;;;;;;14.20;3.93;;;21.90;99.90;;;;;;6220178;23;20399;-88
2022/08/28 07:06:18;;;;;;;18.23;4.80;;;22.20;99.90;;;;;;6219099;23;20387;-88
2022/08/28 07:08:44;;;;;;;9.97;4.27;;;22.40;99.90;;;;;;6215821;23;20391;-89
2022/08/28 07:11:23;;;;;;;11.90;4.57;;;22.60;99.90;;;;;;6214655;23;20427;-87
2022/08/28 07:13:51;;;;;;;11.30;4.33;;;22.60;99.90;;;;;;6218023;23;20911;-88
2022/08/28 07:16:18;;;;;;;9.20;3.60;;;22.70;99.90;;;;;;6213787;23;20387;-89
2022/08/28 07:18:44;;;;;;;7.90;4.37;;;22.70;99.90;;;;;;6213928;23;20394;-88
2022/08/28 07:21:12;;;;;;;8.63;4.07;;;22.90;99.90;;;;;;6213806;23;20532;-89
2022/08/28 07:23:40;;;;;;;12.33;4.03;;;23.20;99.90;;;;;;6211749;23;20747;-90
2022/08/28 07:26:09;;;;;;;7.60;3.67;;;23.60;99.90;;;;;;6212083;23;20462;-89
2022/08/28 07:28:35;;;;;;;11.73;4.87;;;23.80;99.90;;;;;;6213940;23;20386;-90
2022/08/28 07:31:04;;;;;;;9.33;3.60;;;24.00;99.90;;;;;;6187756;23;20970;-89
2022/08/28 07:33:32;;;;;;;10.90;3.80;;;24.30;99.90;;;;;;6213957;23;20167;-89
2022/08/28 07:35:59;;;;;;;10.93;3.80;;;24.80;99.90;;;;;;6212471;23;20411;-89
2022/08/28 07:38:25;;;;;;;8.10;4.10;;;25.10;99.90;;;;;;6211703;23;20466;-89
2022/08/28 07:40:51;;;;;;;7.33;3.93;;;25.20;99.90;;;;;;6211492;23;20729;-89
2022/08/28 07:46:05;;;;;;;11.07;3.40;;;25.20;99.90;;;;;;6213034;23;20860;-90
2022/08/28 07:48:33;;;;;;;8.93;3.63;;;25.30;99.90;;;;;;6213724;23;20450;-89
2022/08/28 07:50:59;;;;;;;14.80;3.97;;;25.50;99.90;;;;;;6212548;23;20468;-89
2022/08/28 07:53:25;;;;;;;8.57;3.50;;;25.60;99.90;;;;;;6212286;23;21032;-90
2022/08/28 07:55:51;;;;;;;9.53;3.07;;;25.80;99.90;;;;;;6186287;23;20507;-90
2022/08/28 07:58:18;;;;;;;7.63;3.50;;;26.00;99.90;;;;;;6211784;23;20188;-90
2022/08/28 08:00:44;;;;;;;10.93;3.77;;;26.30;99.90;;;;;;6217164;23;20200;-88
2022/08/28 08:03:10;;;;;;;9.97;4.10;;;26.60;99.90;;;;;;6215887;23;20413;-89
2022/08/28 08:05:36;;;;;;;9.33;3.83;;;27.20;99.90;;;;;;6226824;23;20584;-87
2022/08/28 08:08:02;;;;;;;16.83;4.20;;;27.90;99.90;;;;;;6224726;23;20170;-87
2022/08/28 08:10:33;;;;;;;11.40;3.60;;;28.70;99.90;;;;;;6226038;23;20532;-88
2022/08/28 08:12:59;;;;;;;11.00;4.00;;;29.50;99.90;;;;;;6228642;23;20442;-89
2022/08/28 08:15:24;;;;;;;7.63;3.77;;;30.20;99.90;;;;;;6230510;23;20834;-88
2022/08/28 08:17:50;;;;;;;9.47;3.70;;;30.30;99.90;;;;;;6224029;23;20164;-87
2022/08/28 08:20:21;;;;;;;11.53;4.13;;;30.20;99.90;;;;;;6224180;23;20153;-87
2022/08/28 08:22:47;;;;;;;12.30;4.40;;;29.80;99.90;;;;;;6223587;23;20452;-87
2022/08/28 08:25:13;;;;;;;11.47;4.40;;;29.10;99.90;;;;;;6224094;23;20408;-89
2022/08/28 08:27:39;;;;;;;10.83;4.43;;;28.70;99.90;;;;;;6223239;23;20150;-86
2022/08/28 08:30:07;;;;;;;12.60;3.93;;;28.60;99.90;;;;;;6220545;23;20941;-87
2022/08/28 08:32:33;;;;;;;8.60;4.57;;;28.60;99.90;;;;;;6222858;23;20165;-88
2022/08/28 08:34:58;;;;;;;11.10;4.10;;;33.50;99.90;;;;;;6194096;23;21051;-87
2022/08/28 08:37:24;;;;;;;5.67;3.60;;;37.40;99.90;;;;;;6217162;23;20161;-89
2022/08/28 08:39:52;;;;;;;9.17;3.20;;;40.50;90.90;;;;;;6215899;23;20200;-90
2022/08/28 08:42:25;;;;;;;9.03;3.90;;;40.60;65.70;;;;;;6215955;23;20610;-88
2022/08/28 08:44:53;;;;;;;7.67;3.63;;;40.60;55.00;;;;;;6220963;23;20782;-89
2022/08/28 08:47:40;;;;;;;9.37;3.53;;;38.40;46.50;;;;;;6220205;23;20381;-89
2022/08/28 08:50:13;;;;;;;9.87;3.53;;;39.30;46.60;;;;;;6220114;23;20878;-88
2022/08/28 08:53:16;;;;;;;11.80;3.50;;;42.20;45.00;;;;;;6218881;23;20380;-88
2022/08/28 08:55:51;;;;;;;6.97;3.17;;;41.80;38.20;;;;;;6194067;23;20372;-89
2022/08/28 08:58:35;;;;;;;6.67;3.07;;;44.10;35.50;;;;;;6219092;23;20376;-87
2022/08/28 09:01:26;;;;;;;7.50;3.50;;;45.60;31.60;;;;;;6215012;23;20424;-89
2022/08/28 09:04:22;;;;;;;7.20;2.90;;;46.20;29.80;;;;;;6217211;23;20399;-88
2022/08/28 09:06:57;;;;;;;7.27;3.43;;;46.70;25.40;;;;;;6190758;23;20913;-89
2022/08/28 09:09:31;;;;;;;6.20;3.37;;;46.50;20.60;;;;;;6218212;23;20376;-89
2022/08/28 09:12:04;;;;;;;9.40;3.30;;;46.80;17.90;;;;;;6191051;23;20388;-88
2022/08/28 09:14:36;;;;;;;5.17;3.27;;;46.80;14.40;;;;;;6190501;23;20808;-90
2022/08/28 09:17:03;;;;;;;11.27;3.50;;;45.90;11.30;;;;;;6188022;23;20396;-91
2022/08/28 09:19:29;;;;;;;9.53;3.37;;;46.50;9.10;;;;;;6216153;23;20385;-88
2022/08/28 09:21:55;;;;;;;5.97;2.90;;;47.20;8.20;;;;;;6217691;23;20428;-87
2022/08/28 09:24:31;;;;;;;7.80;2.87;;;46.80;5.30;;;;;;6218652;23;20411;-90
2022/08/28 09:26:58;;;;;;;8.00;3.50;;;46.80;2.50;;;;;;6218442;23;20169;-88
2022/08/28 09:29:37;;;;;;;8.60;3.63;;;45.40;1.00;;;;;;6218468;23;20385;-88
2022/08/28 09:32:43;;;;;;;5.60;2.73;;;45.20;1.00;;;;;;6219199;23;20368;-87
2022/08/28 10:00:39;;;;;;;5.57;2.27;;;44.80;1.00;;;;;;6250647;23;21014;-87
2022/08/28 11:49:09;;;;;;;3.60;1.60;;;40.70;1.00;;;;;;6156720;23;20860;-85
2022/08/28 12:24:01;;;;;;;6.47;1.73;;;42.60;1.00;;;;;;6189768;23;20425;-83
2022/08/28 12:30:49;;;;;;;3.10;1.57;;;41.50;1.00;;;;;;6107143;23;20390;-84
2022/08/28 12:40:27;;;;;;;3.30;1.80;;;40.40;1.00;;;;;;6126815;23;20722;-83
2022/08/28 12:50:33;;;;;;;4.50;1.53;;;40.70;1.00;;;;;;6126573;23;20432;-83
2022/08/28 12:54:03;;;;;;;5.70;2.47;;;40.60;1.00;;;;;;6127429;23;20778;-83
2022/08/28 13:28:07;;;;;;;2.80;1.57;;;36.80;1.00;;;;;;6014618;23;20391;-83
2022/08/28 13:54:05;;;;;;;4.90;1.30;;;35.90;1.00;;;;;;6155503;23;20378;-83
2022/08/28 14:07:06;;;;;;;9.20;1.90;;;35.80;1.00;;;;;;6252716;23;20380;-84
2022/08/28 14:10:29;;;;;;;2.90;1.20;;;35.50;1.00;;;;;;6226193;23;20458;-83
2022/08/28 14:16:49;;;;;;;3.97;1.27;;;34.60;1.00;;;;;;6129707;23;20967;-87
2022/08/28 14:19:21;;;;;;;5.50;1.53;;;34.50;1.00;;;;;;6125955;23;20395;-83
2022/08/28 14:22:06;;;;;;;5.07;1.93;;;34.30;1.00;;;;;;6129784;23;20439;-84
2022/08/28 14:28:53;;;;;;;3.07;1.50;;;34.10;1.00;;;;;;6038005;23;20394;-83
2022/08/28 14:35:42;;;;;;;;;;;;;;;;;;;;;
2022/08/28 14:39:06;;;;;;;3.80;1.43;;;33.70;1.00;;;;;;6150141;23;20424;-83
2022/08/28 14:46:48;;;;;;;3.10;1.60;;;32.60;1.00;;;;;;6282875;22;20489;-85
2022/08/28 14:50:00;;;;;;;3.23;1.40;;;32.30;1.00;;;;;;6218244;23;20415;-84
2022/08/28 14:53:00;;;;;;;4.70;2.07;;;32.00;1.00;;;;;;6190658;23;20412;-84
2022/08/28 15:08:23;;;;;;;5.77;1.53;;;31.40;1.00;;;;;;6216682;23;20384;-85
2022/08/28 15:14:42;;;;;;;4.37;1.43;;;31.20;1.00;;;;;;6221476;23;20361;-83
2022/08/28 15:21:24;;;;;;;;;;;;;;;;;;;;;
2022/08/28 15:24:14;;;;;;;3.03;1.13;;;30.60;1.00;;;;;;6182430;23;20411;-84
2022/08/28 15:27:06;;;;;;;3.50;1.37;;;30.50;1.00;;;;;;6205139;23;20468;-84
2022/08/28 15:29:59;;;;;;;;;;;;;;;;;;;;;
2022/08/28 15:33:02;;;;;;;2.70;1.47;;;30.30;1.00;;;;;;6220235;23;20443;-83
2022/08/28 15:42:41;;;;;;;5.37;1.27;;;30.20;1.00;;;;;;6222173;23;20467;-83
2022/08/28 15:45:49;;;;;;;3.07;1.80;;;30.00;1.00;;;;;;6180562;23;20398;-84
2022/08/28 15:48:41;;;;;;;5.83;1.63;;;29.80;1.00;;;;;;6204798;23;20389;-83
2022/08/28 15:51:27;;;;;;;3.33;1.30;;;29.70;1.00;;;;;;6201787;23;20440;-88
2022/08/28 15:54:21;;;;;;;5.53;1.77;;;29.60;1.00;;;;;;6201087;23;20396;-83
2022/08/28 15:57:07;;;;;;;4.00;1.60;;;29.60;1.00;;;;;;6217296;23;20388;-83
2022/08/28 16:00:21;;;;;;;;;;;;;;;;;;;;;
2022/08/28 16:05:46;;;;;;;3.27;1.23;;;29.20;1.00;;;;;;6256561;23;20380;-83
2022/08/28 16:08:57;;;;;;;;;;;;;;;;;;;;;
2022/08/28 16:11:26;;;;;;;2.13;1.30;;;29.10;1.00;;;;;;6253485;22;20187;-83
2022/08/28 16:14:03;;;;;;;3.73;1.50;;;29.00;1.00;;;;;;6253233;23;20879;-84
2022/08/28 16:16:58;;;;;;;3.00;1.30;;;28.90;1.00;;;;;;6225921;23;20390;-84
2022/08/28 16:19:30;;;;;;;2.63;1.27;;;28.80;1.00;;;;;;6224788;22;20380;-84
2022/08/28 16:22:15;;;;;;;3.07;1.20;;;28.70;1.00;;;;;;6224486;23;20439;-83
2022/08/28 16:24:46;;;;;;;5.20;1.30;;;28.50;1.00;;;;;;6223284;23;20376;-82
2022/08/28 16:27:21;;;;;;;3.60;1.00;;;28.50;1.00;;;;;;6223516;23;20437;-83
2022/08/28 16:30:16;;;;;;;3.63;1.10;;;28.50;1.00;;;;;;6224615;23;20414;-83
2022/08/28 16:39:53;;;;;;;2.60;1.20;;;28.40;1.00;;;;;;6252139;23;20359;-83
2022/08/28 16:43:19;;;;;;;3.93;1.67;;;28.40;1.00;;;;;;6225804;23;20490;-84
2022/08/28 16:50:57;;;;;;;3.27;1.30;;;28.20;1.00;;;;;;6131603;23;20375;-85
2022/08/28 16:53:41;;;;;;;2.80;1.30;;;28.00;1.00;;;;;;6122674;23;20414;-86
2022/08/28 16:56:22;;;;;;;3.87;1.30;;;27.90;1.00;;;;;;6189374;23;20383;-86
2022/08/28 16:59:12;;;;;;;4.90;1.67;;;27.90;1.00;;;;;;6224726;23;21319;-84
2022/08/28 17:02:03;;;;;;;5.20;1.70;;;27.80;1.00;;;;;;6224834;22;20487;-85
2022/08/28 17:04:34;;;;;;;3.50;1.30;;;27.80;1.00;;;;;;6205290;23;20400;-85
2022/08/28 17:06:59;;;;;;;3.70;1.47;;;27.70;1.00;;;;;;6250845;23;20376;-83
2022/08/28 17:09:54;;;;;;;5.37;1.63;;;27.50;1.00;;;;;;6224541;23;20395;-86
2022/08/28 17:12:44;;;;;;;9.40;1.70;;;27.40;1.00;;;;;;6218835;23;20275;-85
2022/08/28 17:18:37;;;;;;;3.60;1.50;;;27.30;1.00;;;;;;6235178;23;20619;-84
2022/08/28 17:24:17;;;;;;;3.17;1.53;;;27.10;1.00;;;;;;6209530;23;20398;-83
2022/08/28 17:27:04;;;;;;;4.93;1.60;;;27.00;1.00;;;;;;6223455;23;20376;-83
2022/08/28 17:30:19;;;;;;;3.13;1.50;;;26.90;1.00;;;;;;6224310;23;20391;-84
2022/08/28 17:35:47;;;;;;;2.87;1.30;;;26.60;1.00;;;;;;6129861;23;20461;-85
2022/08/28 17:38:15;;;;;;;3.30;1.27;;;26.50;1.00;;;;;;6225222;23;20391;-84
2022/08/28 17:40:41;;;;;;;3.00;1.43;;;26.40;1.00;;;;;;6221456;23;20806;-85
2022/08/28 17:43:16;;;;;;;2.63;1.70;;;26.40;1.00;;;;;;6252297;22;20422;-84
2022/08/28 17:45:55;;;;;;;6.60;1.70;;;26.30;1.00;;;;;;6226489;23;20156;-84
2022/08/28 17:48:38;;;;;;;4.53;1.70;;;26.20;1.00;;;;;;6225089;23;20387;-85
2022/08/28 17:51:13;;;;;;;3.43;1.50;;;26.00;1.00;;;;;;6226294;23;20391;-84
2022/08/28 17:53:42;;;;;;;3.00;1.37;;;25.90;1.00;;;;;;6225472;23;20492;-85
2022/08/28 17:56:18;;;;;;;5.17;1.70;;;25.80;1.00;;;;;;6254387;23;20384;-84
2022/08/28 17:59:03;;;;;;;4.73;1.93;;;25.70;1.00;;;;;;6254503;23;20376;-83
2022/08/28 18:01:40;;;;;;;5.33;2.20;;;25.50;1.00;;;;;;6252740;22;20882;-84
2022/08/28 18:04:24;;;;;;;3.10;1.50;;;25.40;1.00;;;;;;6228564;23;20416;-85
2022/08/28 18:06:53;;;;;;;2.53;1.40;;;25.30;1.00;;;;;;6229216;23;20451;-85
2022/08/28 18:09:19;;;;;;;3.73;1.47;;;25.10;1.00;;;;;;6255635;23;20388;-82
2022/08/28 18:11:57;;;;;;;5.13;1.70;;;25.00;1.00;;;;;;6251516;22;20407;-85
2022/08/28 18:14:25;;;;;;;6.10;1.80;;;24.90;1.00;;;;;;6231696;23;20384;-85
2022/08/28 18:16:56;;;;;;;2.60;1.33;;;24.70;1.00;;;;;;6227201;23;20912;-86
2022/08/28 18:19:53;;;;;;;4.70;1.60;;;24.60;1.00;;;;;;6230563;23;20387;-85
2022/08/28 18:25:48;;;;;;;5.20;1.77;;;24.30;1.00;;;;;;6257762;23;20380;-85
2022/08/28 18:28:22;;;;;;;3.63;1.53;;;24.20;1.00;;;;;;6256997;23;20366;-85
2022/08/28 18:31:51;;;;;;;3.17;1.47;;;24.00;1.00;;;;;;6229732;23;20902;-85
2022/08/28 18:33:56;;;;;;;4.77;1.40;;;23.90;1.00;;;;;;6230083;23;20494;-85
2022/08/28 18:36:40;;;;;;;5.00;1.40;;;23.70;1.00;;;;;;6258598;23;20377;-86
2022/08/28 18:39:20;;;;;;;2.87;1.40;;;23.60;1.00;;;;;;6230184;23;20390;-87
2022/08/28 18:41:55;;;;;;;3.00;1.90;;;23.50;1.00;;;;;;6230550;22;20442;-86